sensor_id;sensor_type;location;lat;lon;timestamp;P1;durP1;ratioP1;P2;durP2;ratioP2
32872;SDS011;19224;52.462;16.898;2023-03-01T00:00:31;152.03;;;65.60;;
32872;SDS011;19224;52.462;16.898;2023-03-01T00:03:03;139.13;;;61.87;;
32872;SDS011;19224;52.462;16.898;2023-03-01T00:05:34;152.13;;;63.80;;
32872;SDS011;19224;52.462;16.898;2023-03-01T00:08:04;143.03;;;63.90;;
32872;SDS011;19224;52.462;16.898;2023-03-01T00:10:35;142.67;;;62.10;;
32872;SDS011;19224;52.462;16.898;2023-03-01T00:13:06;146.33;;;64.13;;
32872;SDS011;19224;52.462;16.898;2023-03-01T00:15:39;141.33;;;64.37;;
32872;SDS011;19224;52.462;16.898;2023-03-01T00:18:11;147.00;;;67.27;;
32872;SDS011;19224;52.462;16.898;2023-03-01T00:20:42;151.37;;;67.13;;
32872;SDS011;19224;52.462;16.898;2023-03-01T00:23:22;150.20;;;67.40;;
32872;SDS011;19224;52.462;16.898;2023-03-01T00:25:54;147.20;;;62.47;;
32872;SDS011;19224;52.462;16.898;2023-03-01T00:28:24;132.53;;;59.23;;
32872;SDS011;19224;52.462;16.898;2023-03-01T00:30:55;120.93;;;56.23;;
32872;SDS011;19224;52.462;16.898;2023-03-01T00:33:27;141.23;;;60.90;;
32872;SDS011;19224;52.462;16.898;2023-03-01T00:35:58;138.97;;;62.63;;
32872;SDS011;19224;52.462;16.898;2023-03-01T00:38:29;172.47;;;73.20;;
32872;SDS011;19224;52.462;16.898;2023-03-01T00:41:08;181.70;;;80.37;;
32872;SDS011;19224;52.462;16.898;2023-03-01T00:43:39;161.50;;;72.77;;
32872;SDS011;19224;52.462;16.898;2023-03-01T00:46:10;176.73;;;79.83;;
32872;SDS011;19224;52.462;16.898;2023-03-01T00:48:45;181.03;;;75.27;;
32872;SDS011;19224;52.462;16.898;2023-03-01T00:51:18;174.40;;;74.20;;
32872;SDS011;19224;52.462;16.898;2023-03-01T00:53:53;166.70;;;73.73;;
32872;SDS011;19224;52.462;16.898;2023-03-01T00:56:26;153.57;;;70.13;;
32872;SDS011;19224;52.462;16.898;2023-03-01T00:59:00;165.70;;;73.50;;
32872;SDS011;19224;52.462;16.898;2023-03-01T01:01:31;156.70;;;70.77;;
32872;SDS011;19224;52.462;16.898;2023-03-01T01:04:06;164.37;;;70.40;;
32872;SDS011;19224;52.462;16.898;2023-03-01T01:06:40;157.07;;;68.73;;
32872;SDS011;19224;52.462;16.898;2023-03-01T01:09:15;160.43;;;70.73;;
32872;SDS011;19224;52.462;16.898;2023-03-01T01:11:47;165.17;;;71.10;;
32872;SDS011;19224;52.462;16.898;2023-03-01T01:14:20;165.93;;;72.03;;
32872;SDS011;19224;52.462;16.898;2023-03-01T01:16:50;169.07;;;71.40;;
32872;SDS011;19224;52.462;16.898;2023-03-01T01:19:21;155.13;;;70.57;;
32872;SDS011;19224;52.462;16.898;2023-03-01T01:21:53;139.60;;;63.30;;
32872;SDS011;19224;52.462;16.898;2023-03-01T01:24:24;171.97;;;75.30;;
32872;SDS011;19224;52.462;16.898;2023-03-01T01:26:54;156.33;;;70.00;;
32872;SDS011;19224;52.462;16.898;2023-03-01T01:29:25;152.33;;;67.93;;
32872;SDS011;19224;52.462;16.898;2023-03-01T01:31:55;149.03;;;65.20;;
32872;SDS011;19224;52.462;16.898;2023-03-01T01:34:26;138.00;;;59.97;;
32872;SDS011;19224;52.462;16.898;2023-03-01T01:36:57;150.20;;;62.17;;
32872;SDS011;19224;52.462;16.898;2023-03-01T01:39:29;141.83;;;62.07;;
32872;SDS011;19224;52.462;16.898;2023-03-01T01:42:00;144.20;;;60.30;;
32872;SDS011;19224;52.462;16.898;2023-03-01T01:44:33;142.47;;;64.03;;
32872;SDS011;19224;52.462;16.898;2023-03-01T01:47:12;131.57;;;58.03;;
32872;SDS011;19224;52.462;16.898;2023-03-01T01:49:43;129.70;;;58.00;;
32872;SDS011;19224;52.462;16.898;2023-03-01T01:52:26;135.10;;;57.60;;
32872;SDS011;19224;52.462;16.898;2023-03-01T01:55:02;130.53;;;56.37;;
32872;SDS011;19224;52.462;16.898;2023-03-01T01:57:46;129.50;;;56.80;;
32872;SDS011;19224;52.462;16.898;2023-03-01T02:00:26;121.07;;;53.93;;
32872;SDS011;19224;52.462;16.898;2023-03-01T02:02:59;109.47;;;51.53;;
32872;SDS011;19224;52.462;16.898;2023-03-01T02:08:59;113.23;;;48.87;;
32872;SDS011;19224;52.462;16.898;2023-03-01T02:11:34;102.27;;;48.00;;
32872;SDS011;19224;52.462;16.898;2023-03-01T02:14:05;103.83;;;48.53;;
32872;SDS011;19224;52.462;16.898;2023-03-01T02:16:36;113.03;;;50.60;;
32872;SDS011;19224;52.462;16.898;2023-03-01T02:19:08;115.37;;;50.67;;
32872;SDS011;19224;52.462;16.898;2023-03-01T02:27:10;123.53;;;53.50;;
32872;SDS011;19224;52.462;16.898;2023-03-01T02:29:41;118.17;;;52.57;;
32872;SDS011;19224;52.462;16.898;2023-03-01T02:32:12;131.70;;;57.77;;
32872;SDS011;19224;52.462;16.898;2023-03-01T02:34:44;129.50;;;55.17;;
32872;SDS011;19224;52.462;16.898;2023-03-01T02:37:15;119.57;;;54.07;;
32872;SDS011;19224;52.462;16.898;2023-03-01T02:39:49;131.73;;;55.87;;
32872;SDS011;19224;52.462;16.898;2023-03-01T02:42:31;124.87;;;54.23;;
32872;SDS011;19224;52.462;16.898;2023-03-01T02:45:05;126.77;;;54.37;;
32872;SDS011;19224;52.462;16.898;2023-03-01T02:47:37;131.10;;;54.87;;
32872;SDS011;19224;52.462;16.898;2023-03-01T02:50:14;135.53;;;56.53;;
32872;SDS011;19224;52.462;16.898;2023-03-01T02:53:01;130.07;;;56.03;;
32872;SDS011;19224;52.462;16.898;2023-03-01T02:55:38;116.73;;;52.50;;
32872;SDS011;19224;52.462;16.898;2023-03-01T02:58:09;117.93;;;50.43;;
32872;SDS011;19224;52.462;16.898;2023-03-01T03:00:41;119.73;;;51.47;;
32872;SDS011;19224;52.462;16.898;2023-03-01T03:03:15;127.73;;;53.10;;
32872;SDS011;19224;52.462;16.898;2023-03-01T03:05:48;112.27;;;50.20;;
32872;SDS011;19224;52.462;16.898;2023-03-01T03:08:19;126.73;;;52.30;;
32872;SDS011;19224;52.462;16.898;2023-03-01T03:10:51;119.67;;;49.73;;
32872;SDS011;19224;52.462;16.898;2023-03-01T03:13:21;125.33;;;54.10;;
32872;SDS011;19224;52.462;16.898;2023-03-01T03:15:59;118.00;;;51.40;;
32872;SDS011;19224;52.462;16.898;2023-03-01T03:18:26;110.50;;;47.93;;
32872;SDS011;19224;52.462;16.898;2023-03-01T03:20:57;113.93;;;46.87;;
32872;SDS011;19224;52.462;16.898;2023-03-01T03:23:27;107.70;;;46.50;;
32872;SDS011;19224;52.462;16.898;2023-03-01T03:25:59;103.40;;;46.17;;
32872;SDS011;19224;52.462;16.898;2023-03-01T03:28:36;107.10;;;44.00;;
32872;SDS011;19224;52.462;16.898;2023-03-01T03:31:06;98.57;;;42.27;;
32872;SDS011;19224;52.462;16.898;2023-03-01T03:33:37;93.87;;;42.20;;
32872;SDS011;19224;52.462;16.898;2023-03-01T03:36:08;105.77;;;41.87;;
32872;SDS011;19224;52.462;16.898;2023-03-01T03:38:40;103.33;;;41.67;;
32872;SDS011;19224;52.462;16.898;2023-03-01T03:41:11;93.43;;;41.97;;
32872;SDS011;19224;52.462;16.898;2023-03-01T03:43:44;95.23;;;43.87;;
32872;SDS011;19224;52.462;16.898;2023-03-01T03:46:16;90.80;;;42.07;;
32872;SDS011;19224;52.462;16.898;2023-03-01T03:48:47;95.43;;;41.63;;
32872;SDS011;19224;52.462;16.898;2023-03-01T03:51:17;94.33;;;43.87;;
32872;SDS011;19224;52.462;16.898;2023-03-01T03:53:50;91.77;;;42.97;;
32872;SDS011;19224;52.462;16.898;2023-03-01T03:56:20;95.23;;;42.67;;
32872;SDS011;19224;52.462;16.898;2023-03-01T03:58:52;90.73;;;41.43;;
32872;SDS011;19224;52.462;16.898;2023-03-01T04:01:23;91.80;;;41.37;;
32872;SDS011;19224;52.462;16.898;2023-03-01T04:03:53;92.90;;;40.60;;
32872;SDS011;19224;52.462;16.898;2023-03-01T04:06:26;92.10;;;40.60;;
32872;SDS011;19224;52.462;16.898;2023-03-01T04:08:56;92.43;;;40.67;;
32872;SDS011;19224;52.462;16.898;2023-03-01T04:11:28;95.33;;;42.03;;
32872;SDS011;19224;52.462;16.898;2023-03-01T04:13:59;101.27;;;42.13;;
32872;SDS011;19224;52.462;16.898;2023-03-01T04:16:31;97.67;;;44.30;;
32872;SDS011;19224;52.462;16.898;2023-03-01T04:19:01;101.17;;;43.27;;
32872;SDS011;19224;52.462;16.898;2023-03-01T04:21:33;95.70;;;42.27;;
32872;SDS011;19224;52.462;16.898;2023-03-01T04:24:04;97.93;;;42.23;;
32872;SDS011;19224;52.462;16.898;2023-03-01T04:26:37;89.53;;;40.40;;
32872;SDS011;19224;52.462;16.898;2023-03-01T04:29:07;92.33;;;42.33;;
32872;SDS011;19224;52.462;16.898;2023-03-01T04:31:38;91.00;;;39.33;;
32872;SDS011;19224;52.462;16.898;2023-03-01T04:34:08;93.73;;;39.93;;
32872;SDS011;19224;52.462;16.898;2023-03-01T04:36:39;92.47;;;40.70;;
32872;SDS011;19224;52.462;16.898;2023-03-01T04:39:09;85.03;;;40.50;;
32872;SDS011;19224;52.462;16.898;2023-03-01T04:41:43;81.43;;;38.97;;
32872;SDS011;19224;52.462;16.898;2023-03-01T04:44:13;91.73;;;39.30;;
32872;SDS011;19224;52.462;16.898;2023-03-01T04:46:44;92.60;;;39.70;;
32872;SDS011;19224;52.462;16.898;2023-03-01T04:49:16;89.23;;;40.90;;
32872;SDS011;19224;52.462;16.898;2023-03-01T04:51:46;83.47;;;39.53;;
32872;SDS011;19224;52.462;16.898;2023-03-01T04:54:17;83.80;;;37.47;;
32872;SDS011;19224;52.462;16.898;2023-03-01T04:56:48;90.53;;;40.43;;
32872;SDS011;19224;52.462;16.898;2023-03-01T04:59:18;90.63;;;40.33;;
32872;SDS011;19224;52.462;16.898;2023-03-01T05:01:50;91.10;;;41.83;;
32872;SDS011;19224;52.462;16.898;2023-03-01T05:04:25;101.50;;;41.53;;
32872;SDS011;19224;52.462;16.898;2023-03-01T05:06:56;98.33;;;42.47;;
32872;SDS011;19224;52.462;16.898;2023-03-01T05:09:26;91.73;;;40.83;;
32872;SDS011;19224;52.462;16.898;2023-03-01T05:11:57;88.47;;;39.87;;
32872;SDS011;19224;52.462;16.898;2023-03-01T05:14:30;100.20;;;43.40;;
32872;SDS011;19224;52.462;16.898;2023-03-01T05:17:01;96.83;;;42.87;;
32872;SDS011;19224;52.462;16.898;2023-03-01T05:19:31;99.40;;;40.80;;
32872;SDS011;19224;52.462;16.898;2023-03-01T05:22:03;103.77;;;43.40;;
32872;SDS011;19224;52.462;16.898;2023-03-01T05:24:34;125.73;;;47.70;;
32872;SDS011;19224;52.462;16.898;2023-03-01T05:27:06;130.13;;;48.13;;
32872;SDS011;19224;52.462;16.898;2023-03-01T05:29:37;139.33;;;46.73;;
32872;SDS011;19224;52.462;16.898;2023-03-01T05:32:08;134.67;;;47.67;;
32872;SDS011;19224;52.462;16.898;2023-03-01T05:34:40;128.83;;;47.13;;
32872;SDS011;19224;52.462;16.898;2023-03-01T05:37:13;116.57;;;49.60;;
32872;SDS011;19224;52.462;16.898;2023-03-01T05:39:45;293.57;;;126.53;;
32872;SDS011;19224;52.462;16.898;2023-03-01T05:42:17;148.07;;;69.33;;
32872;SDS011;19224;52.462;16.898;2023-03-01T05:44:47;116.00;;;58.73;;
32872;SDS011;19224;52.462;16.898;2023-03-01T05:47:18;143.70;;;68.90;;
32872;SDS011;19224;52.462;16.898;2023-03-01T05:49:49;111.00;;;51.67;;
32872;SDS011;19224;52.462;16.898;2023-03-01T05:52:19;120.87;;;49.83;;
32872;SDS011;19224;52.462;16.898;2023-03-01T05:54:50;112.77;;;49.70;;
32872;SDS011;19224;52.462;16.898;2023-03-01T05:57:20;125.17;;;52.47;;
32872;SDS011;19224;52.462;16.898;2023-03-01T05:59:51;133.17;;;55.50;;
32872;SDS011;19224;52.462;16.898;2023-03-01T06:02:21;148.47;;;53.93;;
32872;SDS011;19224;52.462;16.898;2023-03-01T06:04:51;111.17;;;46.93;;
32872;SDS011;19224;52.462;16.898;2023-03-01T06:07:22;97.47;;;42.30;;
32872;SDS011;19224;52.462;16.898;2023-03-01T06:09:53;96.70;;;43.03;;
32872;SDS011;19224;52.462;16.898;2023-03-01T06:12:23;101.17;;;45.63;;
32872;SDS011;19224;52.462;16.898;2023-03-01T06:14:54;119.90;;;49.37;;
32872;SDS011;19224;52.462;16.898;2023-03-01T06:17:28;119.93;;;49.27;;
32872;SDS011;19224;52.462;16.898;2023-03-01T06:20:00;140.17;;;56.60;;
32872;SDS011;19224;52.462;16.898;2023-03-01T06:22:30;134.90;;;54.23;;
32872;SDS011;19224;52.462;16.898;2023-03-01T06:25:01;125.37;;;51.87;;
32872;SDS011;19224;52.462;16.898;2023-03-01T06:27:33;126.17;;;52.30;;
32872;SDS011;19224;52.462;16.898;2023-03-01T06:30:04;112.83;;;49.30;;
32872;SDS011;19224;52.462;16.898;2023-03-01T06:32:37;107.80;;;47.70;;
32872;SDS011;19224;52.462;16.898;2023-03-01T06:35:13;108.93;;;46.83;;
32872;SDS011;19224;52.462;16.898;2023-03-01T06:37:48;103.27;;;44.83;;
32872;SDS011;19224;52.462;16.898;2023-03-01T06:40:19;102.23;;;44.43;;
32872;SDS011;19224;52.462;16.898;2023-03-01T06:42:50;100.77;;;44.37;;
32872;SDS011;19224;52.462;16.898;2023-03-01T06:45:21;103.57;;;44.83;;
32872;SDS011;19224;52.462;16.898;2023-03-01T06:47:52;104.90;;;44.87;;
32872;SDS011;19224;52.462;16.898;2023-03-01T06:50:25;106.70;;;41.73;;
32872;SDS011;19224;52.462;16.898;2023-03-01T06:52:56;109.53;;;43.80;;
32872;SDS011;19224;52.462;16.898;2023-03-01T06:55:28;111.90;;;44.23;;
32872;SDS011;19224;52.462;16.898;2023-03-01T06:57:59;124.03;;;47.13;;
32872;SDS011;19224;52.462;16.898;2023-03-01T07:00:31;104.97;;;43.43;;
32872;SDS011;19224;52.462;16.898;2023-03-01T07:03:02;102.43;;;44.50;;
32872;SDS011;19224;52.462;16.898;2023-03-01T07:05:33;98.07;;;39.33;;
32872;SDS011;19224;52.462;16.898;2023-03-01T07:08:03;101.93;;;41.87;;
32872;SDS011;19224;52.462;16.898;2023-03-01T07:10:34;85.90;;;41.10;;
32872;SDS011;19224;52.462;16.898;2023-03-01T07:13:05;91.47;;;42.33;;
32872;SDS011;19224;52.462;16.898;2023-03-01T07:15:36;91.77;;;39.17;;
32872;SDS011;19224;52.462;16.898;2023-03-01T07:18:08;81.23;;;37.03;;
32872;SDS011;19224;52.462;16.898;2023-03-01T07:20:38;85.57;;;39.13;;
32872;SDS011;19224;52.462;16.898;2023-03-01T07:23:09;87.60;;;39.53;;
32872;SDS011;19224;52.462;16.898;2023-03-01T07:25:39;79.87;;;35.57;;
32872;SDS011;19224;52.462;16.898;2023-03-01T07:28:10;76.90;;;34.53;;
32872;SDS011;19224;52.462;16.898;2023-03-01T07:30:41;69.33;;;33.07;;
32872;SDS011;19224;52.462;16.898;2023-03-01T07:33:12;65.90;;;31.40;;
32872;SDS011;19224;52.462;16.898;2023-03-01T07:35:43;77.63;;;34.90;;
32872;SDS011;19224;52.462;16.898;2023-03-01T07:38:13;70.17;;;31.13;;
32872;SDS011;19224;52.462;16.898;2023-03-01T07:40:44;70.90;;;29.27;;
32872;SDS011;19224;52.462;16.898;2023-03-01T07:43:14;58.17;;;28.37;;
32872;SDS011;19224;52.462;16.898;2023-03-01T07:45:45;55.13;;;27.73;;
32872;SDS011;19224;52.462;16.898;2023-03-01T07:48:16;54.33;;;26.07;;
32872;SDS011;19224;52.462;16.898;2023-03-01T07:50:46;50.13;;;23.83;;
32872;SDS011;19224;52.462;16.898;2023-03-01T07:53:17;59.63;;;30.23;;
32872;SDS011;19224;52.462;16.898;2023-03-01T07:55:48;67.10;;;31.90;;
32872;SDS011;19224;52.462;16.898;2023-03-01T07:58:19;58.90;;;27.97;;
32872;SDS011;19224;52.462;16.898;2023-03-01T08:00:49;57.83;;;26.73;;
32872;SDS011;19224;52.462;16.898;2023-03-01T08:03:20;43.70;;;21.77;;
32872;SDS011;19224;52.462;16.898;2023-03-01T08:05:50;45.73;;;21.47;;
32872;SDS011;19224;52.462;16.898;2023-03-01T08:08:21;42.27;;;20.87;;
32872;SDS011;19224;52.462;16.898;2023-03-01T08:10:52;41.93;;;22.10;;
32872;SDS011;19224;52.462;16.898;2023-03-01T08:13:24;36.13;;;18.27;;
32872;SDS011;19224;52.462;16.898;2023-03-01T08:16:00;29.90;;;14.95;;
32872;SDS011;19224;52.462;16.898;2023-03-01T08:18:32;31.57;;;13.40;;
32872;SDS011;19224;52.462;16.898;2023-03-01T08:21:08;23.70;;;12.98;;
32872;SDS011;19224;52.462;16.898;2023-03-01T08:23:37;28.37;;;12.83;;
32872;SDS011;19224;52.462;16.898;2023-03-01T08:26:10;28.07;;;12.97;;
32872;SDS011;19224;52.462;16.898;2023-03-01T08:28:48;24.95;;;13.35;;
32872;SDS011;19224;52.462;16.898;2023-03-01T08:31:20;22.85;;;12.47;;
32872;SDS011;19224;52.462;16.898;2023-03-01T08:33:55;27.85;;;12.68;;
32872;SDS011;19224;52.462;16.898;2023-03-01T08:36:29;24.60;;;12.47;;
32872;SDS011;19224;52.462;16.898;2023-03-01T08:39:03;30.23;;;12.63;;
32872;SDS011;19224;52.462;16.898;2023-03-01T08:41:35;33.30;;;13.80;;
32872;SDS011;19224;52.462;16.898;2023-03-01T08:44:06;34.30;;;14.30;;
32872;SDS011;19224;52.462;16.898;2023-03-01T08:46:39;29.37;;;14.68;;
32872;SDS011;19224;52.462;16.898;2023-03-01T08:49:12;33.60;;;15.67;;
32872;SDS011;19224;52.462;16.898;2023-03-01T08:51:46;34.48;;;16.27;;
32872;SDS011;19224;52.462;16.898;2023-03-01T08:54:18;31.90;;;14.28;;
32872;SDS011;19224;52.462;16.898;2023-03-01T08:56:51;34.43;;;15.80;;
32872;SDS011;19224;52.462;16.898;2023-03-01T08:59:22;31.57;;;13.87;;
32872;SDS011;19224;52.462;16.898;2023-03-01T09:01:54;30.33;;;13.33;;
32872;SDS011;19224;52.462;16.898;2023-03-01T09:04:25;26.42;;;12.88;;
32872;SDS011;19224;52.462;16.898;2023-03-01T09:06:55;28.92;;;13.70;;
32872;SDS011;19224;52.462;16.898;2023-03-01T09:09:26;25.30;;;12.00;;
32872;SDS011;19224;52.462;16.898;2023-03-01T09:11:56;26.07;;;12.00;;
32872;SDS011;19224;52.462;16.898;2023-03-01T09:14:27;28.87;;;13.80;;
32872;SDS011;19224;52.462;16.898;2023-03-01T09:16:58;23.18;;;11.93;;
32872;SDS011;19224;52.462;16.898;2023-03-01T09:19:30;20.70;;;11.83;;
32872;SDS011;19224;52.462;16.898;2023-03-01T09:22:02;23.15;;;10.68;;
32872;SDS011;19224;52.462;16.898;2023-03-01T09:24:34;19.55;;;9.63;;
32872;SDS011;19224;52.462;16.898;2023-03-01T09:27:04;19.10;;;10.00;;
32872;SDS011;19224;52.462;16.898;2023-03-01T09:29:36;20.85;;;9.88;;
32872;SDS011;19224;52.462;16.898;2023-03-01T09:32:07;21.10;;;10.03;;
32872;SDS011;19224;52.462;16.898;2023-03-01T09:34:39;21.12;;;10.08;;
32872;SDS011;19224;52.462;16.898;2023-03-01T09:37:28;21.55;;;10.00;;
32872;SDS011;19224;52.462;16.898;2023-03-01T09:40:02;20.73;;;9.13;;
32872;SDS011;19224;52.462;16.898;2023-03-01T09:42:34;23.02;;;9.60;;
32872;SDS011;19224;52.462;16.898;2023-03-01T09:45:11;17.55;;;9.33;;
32872;SDS011;19224;52.462;16.898;2023-03-01T09:47:43;23.62;;;10.70;;
32872;SDS011;19224;52.462;16.898;2023-03-01T09:50:14;23.77;;;10.68;;
32872;SDS011;19224;52.462;16.898;2023-03-01T09:58:37;20.23;;;9.60;;
32872;SDS011;19224;52.462;16.898;2023-03-01T10:09:52;24.32;;;10.00;;
32872;SDS011;19224;52.462;16.898;2023-03-01T10:12:30;21.00;;;10.03;;
32872;SDS011;19224;52.462;16.898;2023-03-01T10:15:11;21.82;;;10.30;;
32872;SDS011;19224;52.462;16.898;2023-03-01T10:18:02;17.65;;;9.08;;
32872;SDS011;19224;52.462;16.898;2023-03-01T10:23:30;20.20;;;9.30;;
32872;SDS011;19224;52.462;16.898;2023-03-01T10:29:14;19.87;;;8.73;;
32872;SDS011;19224;52.462;16.898;2023-03-01T10:31:52;17.57;;;9.13;;
32872;SDS011;19224;52.462;16.898;2023-03-01T10:34:27;17.67;;;8.65;;
32872;SDS011;19224;52.462;16.898;2023-03-01T10:39:56;19.67;;;8.85;;
32872;SDS011;19224;52.462;16.898;2023-03-01T10:42:39;11.43;;;6.95;;
32872;SDS011;19224;52.462;16.898;2023-03-01T10:45:30;17.82;;;8.20;;
32872;SDS011;19224;52.462;16.898;2023-03-01T10:48:14;16.35;;;8.25;;
32872;SDS011;19224;52.462;16.898;2023-03-01T10:53:34;18.92;;;7.35;;
32872;SDS011;19224;52.462;16.898;2023-03-01T10:56:14;14.30;;;7.60;;
32872;SDS011;19224;52.462;16.898;2023-03-01T10:58:59;15.40;;;7.60;;
32872;SDS011;19224;52.462;16.898;2023-03-01T11:01:34;18.95;;;8.23;;
32872;SDS011;19224;52.462;16.898;2023-03-01T11:06:40;15.25;;;7.65;;
32872;SDS011;19224;52.462;16.898;2023-03-01T11:09:22;19.32;;;8.83;;
32872;SDS011;19224;52.462;16.898;2023-03-01T11:11:57;15.83;;;8.13;;
32872;SDS011;19224;52.462;16.898;2023-03-01T11:14:35;16.55;;;8.48;;
32872;SDS011;19224;52.462;16.898;2023-03-01T11:17:21;16.17;;;7.55;;
32872;SDS011;19224;52.462;16.898;2023-03-01T11:20:13;17.12;;;8.65;;
32872;SDS011;19224;52.462;16.898;2023-03-01T11:22:56;16.55;;;8.15;;
32872;SDS011;19224;52.462;16.898;2023-03-01T11:25:35;14.33;;;7.20;;
32872;SDS011;19224;52.462;16.898;2023-03-01T11:28:14;12.70;;;7.83;;
32872;SDS011;19224;52.462;16.898;2023-03-01T11:33:30;14.30;;;7.60;;
32872;SDS011;19224;52.462;16.898;2023-03-01T11:36:28;15.48;;;7.83;;
32872;SDS011;19224;52.462;16.898;2023-03-01T11:38:54;12.45;;;7.65;;
32872;SDS011;19224;52.462;16.898;2023-03-01T11:41:27;14.78;;;7.50;;
32872;SDS011;19224;52.462;16.898;2023-03-01T11:44:13;21.65;;;9.18;;
32872;SDS011;19224;52.462;16.898;2023-03-01T11:47:03;25.05;;;11.93;;
32872;SDS011;19224;52.462;16.898;2023-03-01T11:52:48;17.17;;;8.15;;
32872;SDS011;19224;52.462;16.898;2023-03-01T11:55:46;15.00;;;8.15;;
32872;SDS011;19224;52.462;16.898;2023-03-01T11:58:31;17.80;;;7.78;;
32872;SDS011;19224;52.462;16.898;2023-03-01T12:07:06;18.70;;;9.05;;
32872;SDS011;19224;52.462;16.898;2023-03-01T12:22:03;22.20;;;8.68;;
32872;SDS011;19224;52.462;16.898;2023-03-01T12:36:29;18.92;;;8.05;;
32872;SDS011;19224;52.462;16.898;2023-03-01T12:45:34;13.95;;;8.13;;
32872;SDS011;19224;52.462;16.898;2023-03-01T12:51:22;17.20;;;7.85;;
32872;SDS011;19224;52.462;16.898;2023-03-01T12:53:54;19.48;;;7.80;;
32872;SDS011;19224;52.462;16.898;2023-03-01T12:56:28;18.73;;;7.47;;
32872;SDS011;19224;52.462;16.898;2023-03-01T12:59:15;15.23;;;6.90;;
32872;SDS011;19224;52.462;16.898;2023-03-01T13:04:40;18.55;;;7.35;;
32872;SDS011;19224;52.462;16.898;2023-03-01T13:07:29;18.55;;;7.50;;
32872;SDS011;19224;52.462;16.898;2023-03-01T13:10:08;16.87;;;6.67;;
32872;SDS011;19224;52.462;16.898;2023-03-01T13:13:14;11.45;;;6.42;;
32872;SDS011;19224;52.462;16.898;2023-03-01T13:15:51;13.20;;;7.05;;
32872;SDS011;19224;52.462;16.898;2023-03-01T13:20:57;15.95;;;7.83;;
32872;SDS011;19224;52.462;16.898;2023-03-01T13:23:32;18.95;;;7.80;;
32872;SDS011;19224;52.462;16.898;2023-03-01T13:26:10;16.60;;;8.20;;
32872;SDS011;19224;52.462;16.898;2023-03-01T13:28:58;18.05;;;8.35;;
32872;SDS011;19224;52.462;16.898;2023-03-01T13:34:06;12.65;;;7.37;;
32872;SDS011;19224;52.462;16.898;2023-03-01T13:39:29;14.65;;;6.60;;
32872;SDS011;19224;52.462;16.898;2023-03-01T13:41:59;14.65;;;7.35;;
32872;SDS011;19224;52.462;16.898;2023-03-01T13:44:32;11.60;;;6.37;;
32872;SDS011;19224;52.462;16.898;2023-03-01T13:49:48;15.98;;;6.55;;
32872;SDS011;19224;52.462;16.898;2023-03-01T13:55:10;11.43;;;6.30;;
32872;SDS011;19224;52.462;16.898;2023-03-01T13:57:50;14.55;;;6.65;;
32872;SDS011;19224;52.462;16.898;2023-03-01T14:00:25;12.05;;;6.25;;
32872;SDS011;19224;52.462;16.898;2023-03-01T14:03:08;12.20;;;6.67;;
32872;SDS011;19224;52.462;16.898;2023-03-01T14:06:30;12.15;;;6.70;;
32872;SDS011;19224;52.462;16.898;2023-03-01T14:08:38;10.20;;;6.15;;
32872;SDS011;19224;52.462;16.898;2023-03-01T14:14:23;9.95;;;6.15;;
32872;SDS011;19224;52.462;16.898;2023-03-01T14:19:57;10.23;;;5.83;;
32872;SDS011;19224;52.462;16.898;2023-03-01T14:22:33;10.58;;;6.22;;
32872;SDS011;19224;52.462;16.898;2023-03-01T14:25:06;10.30;;;5.87;;
32872;SDS011;19224;52.462;16.898;2023-03-01T14:30:49;23.92;;;10.68;;
32872;SDS011;19224;52.462;16.898;2023-03-01T14:33:32;13.48;;;7.72;;
32872;SDS011;19224;52.462;16.898;2023-03-01T14:36:10;15.50;;;7.45;;
32872;SDS011;19224;52.462;16.898;2023-03-01T14:38:45;18.48;;;7.05;;
32872;SDS011;19224;52.462;16.898;2023-03-01T14:41:17;12.40;;;6.75;;
32872;SDS011;19224;52.462;16.898;2023-03-01T14:43:51;11.10;;;6.17;;
32872;SDS011;19224;52.462;16.898;2023-03-01T14:46:41;16.35;;;9.55;;
32872;SDS011;19224;52.462;16.898;2023-03-01T14:49:19;16.00;;;8.05;;
32872;SDS011;19224;52.462;16.898;2023-03-01T14:51:57;14.90;;;6.78;;
32872;SDS011;19224;52.462;16.898;2023-03-01T14:57:13;11.75;;;5.97;;
32872;SDS011;19224;52.462;16.898;2023-03-01T14:59:46;16.95;;;6.95;;
32872;SDS011;19224;52.462;16.898;2023-03-01T15:02:28;10.80;;;6.75;;
32872;SDS011;19224;52.462;16.898;2023-03-01T15:04:59;12.10;;;6.22;;
32872;SDS011;19224;52.462;16.898;2023-03-01T15:07:34;12.25;;;6.28;;
32872;SDS011;19224;52.462;16.898;2023-03-01T15:10:14;9.63;;;6.10;;
32872;SDS011;19224;52.462;16.898;2023-03-01T15:12:45;12.55;;;6.45;;
32872;SDS011;19224;52.462;16.898;2023-03-01T15:15:20;14.15;;;6.87;;
32872;SDS011;19224;52.462;16.898;2023-03-01T15:18:04;22.25;;;9.10;;
32872;SDS011;19224;52.462;16.898;2023-03-01T15:20:44;14.73;;;6.22;;
32872;SDS011;19224;52.462;16.898;2023-03-01T15:23:26;14.87;;;6.37;;
32872;SDS011;19224;52.462;16.898;2023-03-01T15:25:58;23.32;;;13.20;;
32872;SDS011;19224;52.462;16.898;2023-03-01T15:28:30;25.25;;;12.55;;
32872;SDS011;19224;52.462;16.898;2023-03-01T15:31:07;14.28;;;8.00;;
32872;SDS011;19224;52.462;16.898;2023-03-01T15:33:48;15.20;;;6.87;;
32872;SDS011;19224;52.462;16.898;2023-03-01T15:36:32;12.58;;;6.45;;
32872;SDS011;19224;52.462;16.898;2023-03-01T15:42:36;11.80;;;6.62;;
32872;SDS011;19224;52.462;16.898;2023-03-01T15:45:11;18.98;;;7.20;;
32872;SDS011;19224;52.462;16.898;2023-03-01T15:47:54;13.53;;;6.83;;
32872;SDS011;19224;52.462;16.898;2023-03-01T15:50:28;13.70;;;7.08;;
32872;SDS011;19224;52.462;16.898;2023-03-01T15:53:06;19.77;;;7.03;;
32872;SDS011;19224;52.462;16.898;2023-03-01T15:55:43;18.42;;;8.00;;
32872;SDS011;19224;52.462;16.898;2023-03-01T15:58:17;28.55;;;12.47;;
32872;SDS011;19224;52.462;16.898;2023-03-01T16:00:49;29.23;;;9.88;;
32872;SDS011;19224;52.462;16.898;2023-03-01T16:03:22;16.15;;;7.80;;
32872;SDS011;19224;52.462;16.898;2023-03-01T16:05:53;18.15;;;7.75;;
32872;SDS011;19224;52.462;16.898;2023-03-01T16:08:23;20.88;;;7.65;;
32872;SDS011;19224;52.462;16.898;2023-03-01T16:10:54;15.08;;;7.53;;
32872;SDS011;19224;52.462;16.898;2023-03-01T16:13:25;15.63;;;8.00;;
32872;SDS011;19224;52.462;16.898;2023-03-01T16:15:55;15.43;;;8.38;;
32872;SDS011;19224;52.462;16.898;2023-03-01T16:18:27;14.10;;;7.65;;
32872;SDS011;19224;52.462;16.898;2023-03-01T16:20:57;22.73;;;8.30;;
32872;SDS011;19224;52.462;16.898;2023-03-01T16:23:27;21.20;;;8.63;;
32872;SDS011;19224;52.462;16.898;2023-03-01T16:25:58;21.57;;;7.85;;
32872;SDS011;19224;52.462;16.898;2023-03-01T16:28:29;28.00;;;9.55;;
32872;SDS011;19224;52.462;16.898;2023-03-01T16:30:59;19.62;;;8.53;;
32872;SDS011;19224;52.462;16.898;2023-03-01T16:33:29;23.70;;;8.65;;
32872;SDS011;19224;52.462;16.898;2023-03-01T16:36:08;20.08;;;10.23;;
32872;SDS011;19224;52.462;16.898;2023-03-01T16:38:41;56.42;;;28.12;;
32872;SDS011;19224;52.462;16.898;2023-03-01T16:41:13;46.65;;;23.77;;